createdAt,value
2022-07-30T00:00:25.125Z,24.90
2022-07-30T00:02:56.263Z,24.90
2022-07-30T00:05:26.758Z,24.80
2022-07-30T00:07:57.254Z,24.80
2022-07-30T00:10:27.885Z,24.80
2022-07-30T00:12:59.381Z,24.80
2022-07-30T00:15:29.867Z,24.70
2022-07-30T00:18:00.181Z,24.70
2022-07-30T00:20:30.772Z,24.80
2022-07-30T00:23:07.109Z,24.80
2022-07-30T00:25:37.432Z,24.80
2022-07-30T00:28:07.860Z,24.70
2022-07-30T00:30:38.323Z,24.80
2022-07-30T00:33:09.193Z,24.70
2022-07-30T00:35:41.833Z,24.70
2022-07-30T00:38:12.310Z,24.70
2022-07-30T00:40:44.284Z,24.70
2022-07-30T00:43:19.489Z,24.70
2022-07-30T00:45:50.388Z,24.80
2022-07-30T00:48:20.917Z,24.70
2022-07-30T00:50:51.247Z,24.80
2022-07-30T00:53:22.817Z,24.80
2022-07-30T00:55:53.346Z,24.80
2022-07-30T00:58:23.945Z,24.80
2022-07-30T01:00:54.424Z,24.80
2022-07-30T01:03:24.972Z,24.80
2022-07-30T01:05:55.231Z,24.80
2022-07-30T01:08:25.607Z,24.90
2022-07-30T01:10:55.886Z,24.80
2022-07-30T01:13:26.493Z,24.90
2022-07-30T01:15:57.198Z,24.90
2022-07-30T01:18:48.933Z,25.00
2022-07-30T01:21:23.958Z,25.00
2022-07-30T01:23:59.387Z,25.00
2022-07-30T01:26:30.182Z,25.10
2022-07-30T01:29:03.232Z,25.10
2022-07-30T01:31:35.588Z,25.20
2022-07-30T01:34:06.920Z,25.10
2022-07-30T01:36:37.779Z,25.30
2022-07-30T01:39:08.730Z,25.30
2022-07-30T01:41:39.923Z,25.50
2022-07-30T01:44:12.865Z,25.50
2022-07-30T01:46:43.906Z,25.70
2022-07-30T01:49:14.903Z,25.70
2022-07-30T01:51:46.672Z,25.80
2022-07-30T01:54:20.474Z,26.00
2022-07-30T01:56:53.909Z,25.90
2022-07-30T01:59:27.477Z,26.00
2022-07-30T02:01:57.735Z,26.10
2022-07-30T02:04:29.300Z,26.20
2022-07-30T02:07:19.083Z,26.20
2022-07-30T02:09:54.732Z,26.20
2022-07-30T02:12:34.625Z,26.20
2022-07-30T02:15:32.360Z,26.30
2022-07-30T02:18:19.583Z,26.40
2022-07-30T02:21:02.545Z,26.50
2022-07-30T02:23:41.616Z,26.70
2022-07-30T02:26:18.366Z,26.80
2022-07-30T02:28:57.089Z,27.00
2022-07-30T02:31:30.726Z,27.10
2022-07-30T02:34:03.679Z,27.30
2022-07-30T02:37:50.763Z,27.50
2022-07-30T02:40:23.520Z,27.70
2022-07-30T02:42:55.629Z,27.80
2022-07-30T02:45:29.131Z,28.00
2022-07-30T02:48:03.575Z,28.10
2022-07-30T02:50:34.732Z,28.20
2022-07-30T02:53:07.849Z,28.20
2022-07-30T02:55:41.003Z,28.30
2022-07-30T02:58:14.087Z,28.30
2022-07-30T03:00:45.535Z,28.30
2022-07-30T03:03:17.419Z,28.40
2022-07-30T03:05:48.921Z,28.30
2022-07-30T03:08:20.110Z,28.20
2022-07-30T03:10:52.256Z,28.30
2022-07-30T03:13:24.565Z,28.50
2022-07-30T03:15:56.625Z,28.70
2022-07-30T03:18:30.695Z,28.90
2022-07-30T03:21:03.209Z,29.10
2022-07-30T03:23:36.579Z,29.10
2022-07-30T03:26:10.776Z,29.10
2022-07-30T03:28:43.425Z,29.10
2022-07-30T03:31:15.477Z,29.20
2022-07-30T03:33:47.127Z,29.30
2022-07-30T03:36:18.337Z,29.40
2022-07-30T03:38:50.878Z,29.30
2022-07-30T03:41:21.915Z,29.30
2022-07-30T03:43:53.194Z,29.10
2022-07-30T03:46:24.800Z,28.70
2022-07-30T03:48:56.929Z,28.60
2022-07-30T03:51:30.637Z,28.50
2022-07-30T03:54:04.602Z,28.50
2022-07-30T03:56:36.226Z,28.30
2022-07-30T03:59:07.629Z,28.20
2022-07-30T04:01:37.973Z,28.10
2022-07-30T04:04:11.493Z,28.00
2022-07-30T04:06:42.492Z,28.00
2022-07-30T04:09:14.384Z,28.00
2022-07-30T04:11:44.768Z,27.90
2022-07-30T04:14:15.203Z,27.80
2022-07-30T04:17:05.960Z,27.80
2022-07-30T04:19:44.654Z,27.90
2022-07-30T04:22:18.518Z,27.90
2022-07-30T04:24:49.468Z,27.90
2022-07-30T04:27:20.775Z,28.00
2022-07-30T04:29:51.572Z,28.00
2022-07-30T04:32:22.189Z,28.00
2022-07-30T04:34:54.780Z,28.10
2022-07-30T04:37:28.118Z,28.20
2022-07-30T04:40:00.049Z,28.30
2022-07-30T04:42:32.154Z,28.40
2022-07-30T04:45:02.577Z,28.50
2022-07-30T04:47:34.045Z,28.50
2022-07-30T04:50:06.962Z,28.60
2022-07-30T04:52:38.687Z,28.60
2022-07-30T04:55:12.349Z,28.50
2022-07-30T04:57:44.690Z,28.50
2022-07-30T05:00:15.688Z,28.40
2022-07-30T05:02:47.457Z,28.50
2022-07-30T05:05:19.747Z,28.70
2022-07-30T05:07:50.190Z,28.90
2022-07-30T05:10:21.418Z,29.10
2022-07-30T05:12:51.685Z,29.40
2022-07-30T05:15:22.386Z,29.70
2022-07-30T05:18:07.151Z,29.80
2022-07-30T05:20:37.593Z,29.80
2022-07-30T05:23:08.334Z,29.90
2022-07-30T05:25:38.755Z,29.80
2022-07-30T05:28:09.090Z,29.90
2022-07-30T05:30:41.981Z,29.90
2022-07-30T05:33:15.902Z,29.90
2022-07-30T05:35:46.402Z,30.00
2022-07-30T05:38:17.129Z,29.90
2022-07-30T05:40:48.839Z,29.90
2022-07-30T05:43:19.233Z,29.90
2022-07-30T05:45:49.523Z,29.90
2022-07-30T05:48:19.923Z,30.00
2022-07-30T05:50:50.218Z,30.00
2022-07-30T05:53:20.565Z,30.00
2022-07-30T05:55:50.853Z,30.00
2022-07-30T05:58:22.350Z,30.00
2022-07-30T06:00:53.080Z,30.10
2022-07-30T06:03:23.376Z,30.10
2022-07-30T06:05:54.094Z,30.10
2022-07-30T06:08:24.680Z,30.10
2022-07-30T06:10:54.990Z,30.10
2022-07-30T06:13:25.242Z,30.10
2022-07-30T06:15:55.960Z,30.10
2022-07-30T06:18:26.422Z,30.00
2022-07-30T06:20:57.876Z,30.00
2022-07-30T06:23:28.161Z,30.10
2022-07-30T06:25:58.527Z,30.10
2022-07-30T06:28:37.649Z,30.20
2022-07-30T06:31:10.102Z,30.30
2022-07-30T06:33:40.487Z,30.30
2022-07-30T06:36:14.027Z,30.30
2022-07-30T06:38:44.924Z,30.30
2022-07-30T06:41:15.281Z,30.40
2022-07-30T06:43:45.547Z,30.40
2022-07-30T06:46:15.923Z,30.40
2022-07-30T06:48:46.491Z,30.40
2022-07-30T06:51:16.836Z,30.40
2022-07-30T06:53:48.051Z,30.50
2022-07-30T06:56:18.601Z,30.50
2022-07-30T06:58:49.009Z,30.50
2022-07-30T07:01:19.346Z,30.40
2022-07-30T07:03:49.697Z,30.40
2022-07-30T07:06:19.979Z,30.40
2022-07-30T07:08:50.378Z,30.40
2022-07-30T07:11:20.635Z,30.40
2022-07-30T07:13:50.958Z,30.30
2022-07-30T07:16:23.845Z,30.40
2022-07-30T07:18:55.375Z,30.40
2022-07-30T07:21:25.795Z,30.50
2022-07-30T07:23:56.190Z,30.50
2022-07-30T07:26:26.583Z,30.60
2022-07-30T07:28:56.947Z,30.70
2022-07-30T07:32:07.044Z,30.80
2022-07-30T07:34:18.954Z,30.80
2022-07-30T07:36:49.446Z,30.80
2022-07-30T07:39:19.712Z,30.90
2022-07-30T07:41:50.762Z,30.90
2022-07-30T07:44:21.089Z,30.90
2022-07-30T07:46:51.544Z,30.90
2022-07-30T07:49:21.866Z,30.90
2022-07-30T07:51:52.291Z,30.90
2022-07-30T07:54:23.356Z,30.90
2022-07-30T07:56:54.842Z,30.90
2022-07-30T07:59:36.276Z,30.80
2022-07-30T08:02:11.824Z,30.90
2022-07-30T08:04:42.502Z,30.90
2022-07-30T08:07:12.858Z,30.90
2022-07-30T08:09:44.671Z,30.90
2022-07-30T08:12:16.054Z,30.90
2022-07-30T08:14:46.347Z,30.90
2022-07-30T08:17:16.673Z,30.80
2022-07-30T08:19:47.228Z,30.80
2022-07-30T08:22:17.589Z,30.80
2022-07-30T08:24:47.995Z,30.70
2022-07-30T08:27:18.412Z,30.80
2022-07-30T08:29:48.773Z,30.80
2022-07-30T08:32:19.153Z,30.80
2022-07-30T08:34:49.987Z,30.70
2022-07-30T08:37:20.338Z,30.70
2022-07-30T08:39:50.861Z,30.70
2022-07-30T08:42:21.707Z,30.70
2022-07-30T08:44:55.212Z,30.70
2022-07-30T08:47:36.813Z,30.60
2022-07-30T08:50:08.018Z,30.70
2022-07-30T08:52:40.438Z,30.60
2022-07-30T08:55:11.579Z,30.70
2022-07-30T08:57:42.081Z,30.80
2022-07-30T09:00:13.322Z,30.80
2022-07-30T09:02:43.710Z,30.80
2022-07-30T09:05:15.279Z,30.80
2022-07-30T09:07:45.788Z,30.90
2022-07-30T09:10:16.330Z,30.80
2022-07-30T09:12:47.902Z,30.80
2022-07-30T09:15:23.027Z,30.80
2022-07-30T09:18:04.315Z,30.70
2022-07-30T09:20:37.803Z,30.70
2022-07-30T09:23:09.519Z,30.70
2022-07-30T09:25:47.950Z,30.70
2022-07-30T09:28:18.713Z,30.60
2022-07-30T09:30:56.142Z,30.60
2022-07-30T09:33:40.352Z,30.60
2022-07-30T09:36:14.253Z,30.60
2022-07-30T09:38:54.239Z,30.50
2022-07-30T09:41:40.055Z,30.50
2022-07-30T09:44:10.550Z,30.50
2022-07-30T09:46:49.188Z,30.50
2022-07-30T09:49:26.902Z,30.50
2022-07-30T09:51:58.633Z,30.50
2022-07-30T09:54:50.606Z,30.50
2022-07-30T09:57:27.275Z,30.50
2022-07-30T10:00:01.038Z,30.50
2022-07-30T10:02:34.471Z,30.50
2022-07-30T10:05:21.256Z,30.50
2022-07-30T10:08:09.366Z,30.50
2022-07-30T10:10:50.986Z,30.40
2022-07-30T10:13:23.487Z,30.40
2022-07-30T10:16:02.723Z,30.40
2022-07-30T10:18:33.655Z,30.30
2022-07-30T10:21:06.074Z,30.20
2022-07-30T10:23:39.767Z,30.10
2022-07-30T10:26:17.334Z,30.10
2022-07-30T10:28:50.128Z,30.00
2022-07-30T10:31:48.229Z,30.00
2022-07-30T10:34:12.820Z,30.00
2022-07-30T10:36:54.745Z,29.90
2022-07-30T10:39:34.505Z,29.90
2022-07-30T10:42:28.053Z,29.90
2022-07-30T10:45:22.200Z,29.90
2022-07-30T10:47:54.795Z,29.90
2022-07-30T10:50:31.368Z,29.90
2022-07-30T10:53:04.422Z,29.80
2022-07-30T10:55:39.333Z,29.90
2022-07-30T10:58:18.011Z,29.90
2022-07-30T11:01:04.618Z,29.90
2022-07-30T11:04:29.638Z,29.90
2022-07-30T11:07:33.523Z,29.90
2022-07-30T11:10:09.193Z,29.70
2022-07-30T11:12:59.777Z,29.60
2022-07-30T11:16:04.623Z,29.50
2022-07-30T11:22:29.863Z,29.40
2022-07-30T11:25:00.680Z,29.10
2022-07-30T11:27:49.209Z,28.90
2022-07-30T11:30:39.047Z,28.80
2022-07-30T11:33:32.207Z,28.60
2022-07-30T11:36:13.473Z,28.40
2022-07-30T11:39:06.857Z,28.30
2022-07-30T11:41:38.202Z,28.10
2022-07-30T11:44:37.470Z,28.00
2022-07-30T11:47:09.241Z,27.90
2022-07-30T11:49:39.681Z,27.70
2022-07-30T11:52:11.058Z,27.70
2022-07-30T11:54:56.767Z,27.60
2022-07-30T11:57:45.322Z,27.60
2022-07-30T12:00:15.961Z,27.60
2022-07-30T12:02:47.308Z,27.60
2022-07-30T12:05:18.301Z,27.60
2022-07-30T12:07:48.779Z,27.50
2022-07-30T12:10:27.929Z,27.50
2022-07-30T12:13:15.535Z,27.40
2022-07-30T12:15:49.119Z,27.50
2022-07-30T12:18:33.797Z,27.60
2022-07-30T12:21:07.033Z,27.70
2022-07-30T12:23:40.389Z,27.70
2022-07-30T12:26:10.897Z,27.70
2022-07-30T12:28:41.502Z,27.60
2022-07-30T12:31:11.875Z,27.50
2022-07-30T12:33:42.428Z,27.40
2022-07-30T12:36:12.885Z,27.40
2022-07-30T12:38:52.696Z,27.30
2022-07-30T12:41:24.122Z,27.30
2022-07-30T12:43:58.065Z,27.30
2022-07-30T12:46:30.132Z,27.30
2022-07-30T12:49:21.358Z,27.20
2022-07-30T12:52:00.124Z,27.20
2022-07-30T12:54:33.635Z,27.20
2022-07-30T12:57:07.130Z,27.20
2022-07-30T12:59:38.800Z,27.20
2022-07-30T13:02:09.079Z,27.20
2022-07-30T13:04:54.761Z,27.10
2022-07-30T13:08:02.086Z,27.00
2022-07-30T13:10:32.614Z,27.00
2022-07-30T13:13:04.429Z,27.00
2022-07-30T13:15:36.864Z,26.90
2022-07-30T13:18:16.720Z,26.90
2022-07-30T13:20:47.185Z,26.80
2022-07-30T13:23:17.488Z,26.80
2022-07-30T13:25:47.822Z,26.70
2022-07-30T13:28:18.289Z,26.60
2022-07-30T13:30:49.361Z,26.60
2022-07-30T13:33:20.201Z,26.50
2022-07-30T13:35:51.115Z,26.50
2022-07-30T13:38:21.591Z,26.50
2022-07-30T13:40:52.018Z,26.50
2022-07-30T13:43:23.459Z,26.60
2022-07-30T13:45:55.019Z,26.60
2022-07-30T13:48:31.862Z,26.60
2022-07-30T13:51:06.381Z,26.60
2022-07-30T13:53:36.795Z,26.60
2022-07-30T13:56:12.522Z,26.60
2022-07-30T13:58:44.310Z,26.60
2022-07-30T14:01:17.665Z,26.50
2022-07-30T14:03:51.584Z,26.40
2022-07-30T14:06:22.317Z,26.30
2022-07-30T14:08:53.601Z,26.30
2022-07-30T14:11:23.915Z,26.30
2022-07-30T14:13:54.384Z,26.30
2022-07-30T14:16:44.044Z,26.30
2022-07-30T14:19:23.506Z,26.30
2022-07-30T14:21:55.994Z,26.30
2022-07-30T14:24:26.824Z,26.30
2022-07-30T14:26:58.305Z,26.30
2022-07-30T14:29:30.304Z,26.20
2022-07-30T14:32:00.669Z,26.20
2022-07-30T14:34:31.224Z,26.10
2022-07-30T14:37:02.601Z,26.10
2022-07-30T14:39:33.240Z,26.10
2022-07-30T14:42:03.939Z,26.10
2022-07-30T14:44:35.016Z,26.10
2022-07-30T14:47:05.539Z,26.10
2022-07-30T14:49:36.851Z,26.20
2022-07-30T14:52:07.430Z,26.20
2022-07-30T14:54:38.599Z,26.20
2022-07-30T14:57:10.771Z,26.20
2022-07-30T14:59:41.334Z,26.20
2022-07-30T15:02:12.219Z,26.20
2022-07-30T15:04:42.645Z,26.20
2022-07-30T15:07:15.020Z,26.20
2022-07-30T15:09:45.402Z,26.20
2022-07-30T15:12:26.781Z,26.10
2022-07-30T15:14:57.708Z,26.10
2022-07-30T15:17:28.526Z,26.10
2022-07-30T15:19:59.074Z,26.10
2022-07-30T15:22:29.816Z,26.10
2022-07-30T15:25:00.359Z,26.10
2022-07-30T15:27:34.046Z,26.10
2022-07-30T15:30:05.621Z,26.10
2022-07-30T15:32:37.456Z,26.00
2022-07-30T15:35:13.212Z,26.00
2022-07-30T15:37:44.508Z,26.00
2022-07-30T15:40:15.295Z,26.00
2022-07-30T15:42:46.297Z,26.10
2022-07-30T15:45:18.054Z,26.10
2022-07-30T15:47:49.313Z,26.10
2022-07-30T15:50:20.248Z,26.10
2022-07-30T15:52:51.141Z,26.10
2022-07-30T15:55:21.489Z,26.00
2022-07-30T15:57:51.963Z,26.10
2022-07-30T16:00:22.460Z,26.00
2022-07-30T16:02:52.784Z,26.00
2022-07-30T16:05:23.060Z,26.00
2022-07-30T16:07:53.408Z,26.00
2022-07-30T16:10:23.866Z,25.90
2022-07-30T16:12:54.779Z,26.00
2022-07-30T16:15:25.227Z,26.00
2022-07-30T16:17:55.714Z,26.00
2022-07-30T16:20:26.035Z,26.00
2022-07-30T16:22:56.291Z,26.00
2022-07-30T16:25:26.867Z,26.00
2022-07-30T16:27:57.282Z,26.00
2022-07-30T16:30:27.764Z,26.10
2022-07-30T16:32:58.371Z,26.00
2022-07-30T16:35:28.785Z,26.00
2022-07-30T16:38:04.674Z,26.00
2022-07-30T16:40:36.225Z,26.00
2022-07-30T16:43:06.656Z,26.00
2022-07-30T16:45:38.641Z,26.00
2022-07-30T16:48:09.270Z,26.00
2022-07-30T16:50:41.080Z,26.00
2022-07-30T16:53:14.402Z,26.00
2022-07-30T16:55:46.990Z,26.00
2022-07-30T16:58:17.390Z,26.00
2022-07-30T17:00:47.888Z,26.00
2022-07-30T17:03:19.865Z,26.00
2022-07-30T17:05:51.118Z,26.00
2022-07-30T17:08:25.099Z,26.00
2022-07-30T17:10:57.282Z,26.00
2022-07-30T17:13:28.216Z,26.00
2022-07-30T17:15:58.784Z,26.00
2022-07-30T17:18:29.153Z,26.00
2022-07-30T17:20:59.480Z,26.00
2022-07-30T17:23:29.819Z,26.00
2022-07-30T17:26:00.232Z,25.90
2022-07-30T17:28:30.481Z,25.90
2022-07-30T17:31:00.759Z,25.90
2022-07-30T17:33:31.145Z,25.90
2022-07-30T17:36:01.801Z,25.90
2022-07-30T17:38:32.111Z,25.90
2022-07-30T17:41:02.500Z,25.90
2022-07-30T17:43:33.576Z,25.90
2022-07-30T17:46:04.591Z,25.90
2022-07-30T17:48:34.927Z,25.90
2022-07-30T17:51:05.663Z,25.90
2022-07-30T17:53:36.295Z,26.00
2022-07-30T17:56:07.465Z,26.00
2022-07-30T17:58:56.829Z,26.00
2022-07-30T18:01:27.519Z,26.00
2022-07-30T18:03:57.969Z,26.00
2022-07-30T18:06:28.276Z,26.00
2022-07-30T18:08:58.686Z,25.90
2022-07-30T18:11:29.030Z,25.90
2022-07-30T18:13:59.730Z,26.00
2022-07-30T18:16:30.032Z,26.00
2022-07-30T18:19:00.362Z,25.90
2022-07-30T18:21:30.630Z,25.90
2022-07-30T18:24:02.012Z,25.80
2022-07-30T18:26:38.577Z,25.80
2022-07-30T18:29:13.764Z,25.80
2022-07-30T18:31:44.438Z,25.80
2022-07-30T18:34:14.971Z,25.70
2022-07-30T18:36:45.375Z,25.70
2022-07-30T18:39:15.734Z,25.70
2022-07-30T18:41:46.160Z,25.70
2022-07-30T18:44:17.487Z,25.60
2022-07-30T18:46:47.859Z,25.60
2022-07-30T18:52:09.248Z,25.50
2022-07-30T18:54:40.526Z,25.50
2022-07-30T18:57:14.459Z,25.50
2022-07-30T18:59:45.065Z,25.50
2022-07-30T19:02:15.542Z,25.50
2022-07-30T19:04:45.880Z,25.50
2022-07-30T19:07:16.469Z,25.40
2022-07-30T19:09:47.275Z,25.40
2022-07-30T19:12:17.675Z,25.30
2022-07-30T19:14:48.097Z,25.30
2022-07-30T19:17:18.536Z,25.30
2022-07-30T19:19:50.893Z,25.30
2022-07-30T19:22:29.570Z,25.40
2022-07-30T19:25:01.098Z,25.30
2022-07-30T19:27:31.431Z,25.30
2022-07-30T19:30:03.689Z,25.30
2022-07-30T19:32:34.435Z,25.30
2022-07-30T19:35:04.761Z,25.30
2022-07-30T19:37:40.744Z,25.30
2022-07-30T19:40:12.731Z,25.30
2022-07-30T19:42:43.275Z,25.30
2022-07-30T19:45:14.725Z,25.30
2022-07-30T19:47:45.707Z,25.30
2022-07-30T19:50:17.092Z,25.30
2022-07-30T19:52:51.162Z,25.30
2022-07-30T19:55:35.448Z,25.40
2022-07-30T19:58:16.143Z,25.40
2022-07-30T20:00:48.524Z,25.40
2022-07-30T20:03:26.214Z,25.40
2022-07-30T20:05:59.978Z,25.40
2022-07-30T20:08:31.167Z,25.40
2022-07-30T20:11:03.452Z,25.50
2022-07-30T20:13:45.386Z,25.50
2022-07-30T20:16:17.703Z,25.50
2022-07-30T20:18:49.632Z,25.50
2022-07-30T20:21:56.742Z,25.50
2022-07-30T20:24:13.328Z,25.50
2022-07-30T20:26:45.994Z,25.50
2022-07-30T20:29:19.255Z,25.40
2022-07-30T20:32:00.501Z,25.40
2022-07-30T20:34:33.059Z,25.40
2022-07-30T20:37:13.885Z,25.30
2022-07-30T20:39:52.846Z,25.30
2022-07-30T20:42:25.792Z,25.30
2022-07-30T20:44:56.520Z,25.30
2022-07-30T20:47:34.580Z,25.30
2022-07-30T20:50:17.178Z,25.30
2022-07-30T20:53:01.435Z,25.30
2022-07-30T20:55:34.029Z,25.30
2022-07-30T20:58:16.562Z,25.30
2022-07-30T21:00:49.861Z,25.30
2022-07-30T21:03:23.860Z,25.30
2022-07-30T21:05:54.791Z,25.30
2022-07-30T21:08:27.270Z,25.30
2022-07-30T21:10:57.839Z,25.30
2022-07-30T21:13:30.691Z,25.30
2022-07-30T21:16:03.517Z,25.30
2022-07-30T21:18:34.838Z,25.30
2022-07-30T21:21:06.218Z,25.30
2022-07-30T21:23:36.687Z,25.20
2022-07-30T21:26:10.542Z,25.20
2022-07-30T21:28:44.306Z,25.20
2022-07-30T21:31:15.172Z,25.10
2022-07-30T21:33:45.983Z,25.10
2022-07-30T21:36:16.515Z,25.20
2022-07-30T21:38:55.339Z,25.10
2022-07-30T21:41:39.889Z,25.10
2022-07-30T21:44:11.479Z,25.10
2022-07-30T21:46:42.692Z,25.00
2022-07-30T21:49:13.515Z,25.00
2022-07-30T21:51:44.570Z,24.90
2022-07-30T21:54:17.062Z,24.90
2022-07-30T21:56:58.944Z,24.80
2022-07-30T21:59:29.997Z,24.80
2022-07-30T22:02:00.811Z,24.70
2022-07-30T22:04:31.335Z,24.70
2022-07-30T22:07:05.022Z,24.80
2022-07-30T22:09:36.303Z,24.70
2022-07-30T22:12:11.919Z,24.70
2022-07-30T22:14:43.455Z,24.70
2022-07-30T22:17:22.611Z,24.70
2022-07-30T22:19:56.425Z,24.70
2022-07-30T22:22:29.373Z,24.70
2022-07-30T22:25:01.282Z,24.60
2022-07-30T22:27:40.325Z,24.60
2022-07-30T22:30:22.698Z,24.60
2022-07-30T22:32:53.306Z,24.60
2022-07-30T22:35:32.338Z,24.60
2022-07-30T22:38:06.295Z,24.60
2022-07-30T22:40:36.941Z,24.70
2022-07-30T22:43:13.078Z,24.70
2022-07-30T22:45:48.971Z,24.60
2022-07-30T22:48:21.749Z,24.70
2022-07-30T22:50:58.735Z,24.70
2022-07-30T22:54:03.680Z,24.70
2022-07-30T22:56:23.859Z,24.70
2022-07-30T22:58:54.606Z,24.70
2022-07-30T23:01:25.210Z,24.70
2022-07-30T23:03:56.519Z,24.70
2022-07-30T23:06:27.092Z,24.70
2022-07-30T23:08:57.986Z,24.80
2022-07-30T23:11:36.967Z,24.70
2022-07-30T23:14:09.325Z,24.70
2022-07-30T23:16:40.698Z,24.70
2022-07-30T23:19:16.222Z,24.70
2022-07-30T23:21:53.243Z,24.70
2022-07-30T23:24:23.533Z,24.80
2022-07-30T23:26:53.859Z,24.70
2022-07-30T23:29:24.273Z,24.70
2022-07-30T23:31:54.538Z,24.70
2022-07-30T23:34:24.842Z,24.60
2022-07-30T23:36:55.272Z,24.50
2022-07-30T23:39:25.629Z,24.70
2022-07-30T23:41:55.916Z,24.70
2022-07-30T23:44:26.247Z,24.70
2022-07-30T23:46:58.345Z,24.70
2022-07-30T23:49:28.582Z,24.70
2022-07-30T23:51:58.960Z,24.70
2022-07-30T23:54:30.914Z,24.70
2022-07-30T23:57:01.636Z,24.70
2022-07-30T23:59:40.572Z,24.70
